sensor_id;sensor_type;location;lat;lon;timestamp;pressure;altitude;pressure_sealevel;temperature;humidity
30618;BME280;17384;51.214;9.202;2023-04-01T00:01:21;96762.38;;;8.42;83.62
30618;BME280;17384;51.214;9.202;2023-04-01T00:03:47;96772.38;;;8.42;83.61
30618;BME280;17384;51.214;9.202;2023-04-01T00:06:15;96761.72;;;8.35;83.50
30618;BME280;17384;51.214;9.202;2023-04-01T00:08:41;96768.28;;;8.39;83.41
30618;BME280;17384;51.214;9.202;2023-04-01T00:11:07;96761.81;;;8.40;83.59
30618;BME280;17384;51.214;9.202;2023-04-01T00:13:33;96762.38;;;8.42;83.27
30618;BME280;17384;51.214;9.202;2023-04-01T00:15:58;96770.34;;;8.32;84.01
30618;BME280;17384;51.214;9.202;2023-04-01T00:18:24;96752.47;;;8.31;84.22
30618;BME280;17384;51.214;9.202;2023-04-01T00:20:52;96754.28;;;8.26;84.30
30618;BME280;17384;51.214;9.202;2023-04-01T00:23:18;96756.16;;;8.25;84.82
30618;BME280;17384;51.214;9.202;2023-04-01T00:25:44;96750.00;;;8.30;84.70
30618;BME280;17384;51.214;9.202;2023-04-01T00:28:12;96743.31;;;8.32;84.81
30618;BME280;17384;51.214;9.202;2023-04-01T00:30:37;96756.47;;;8.29;84.81
30618;BME280;17384;51.214;9.202;2023-04-01T00:33:03;96746.41;;;8.24;84.79
30618;BME280;17384;51.214;9.202;2023-04-01T00:35:30;96751.56;;;8.26;84.55
30618;BME280;17384;51.214;9.202;2023-04-01T00:37:55;96757.13;;;8.14;85.03
30618;BME280;17384;51.214;9.202;2023-04-01T00:42:58;96755.84;;;8.22;85.08
30618;BME280;17384;51.214;9.202;2023-04-01T00:45:39;96745.25;;;8.15;84.24
30618;BME280;17384;51.214;9.202;2023-04-01T00:48:16;96761.31;;;8.27;84.53
30618;BME280;17384;51.214;9.202;2023-04-01T00:50:46;96751.31;;;8.27;84.41
30618;BME280;17384;51.214;9.202;2023-04-01T00:53:14;96738.38;;;8.29;84.11
30618;BME280;17384;51.214;9.202;2023-04-01T00:55:45;96735.13;;;8.27;83.51
30618;BME280;17384;51.214;9.202;2023-04-01T00:58:16;96737.31;;;8.30;83.94
30618;BME280;17384;51.214;9.202;2023-04-01T01:00:43;96743.16;;;8.22;83.41
30618;BME280;17384;51.214;9.202;2023-04-01T01:03:10;96745.59;;;8.24;83.66
30618;BME280;17384;51.214;9.202;2023-04-01T01:06:10;96747.38;;;8.13;83.75
30618;BME280;17384;51.214;9.202;2023-04-01T01:11:05;96756.72;;;8.27;83.61
30618;BME280;17384;51.214;9.202;2023-04-01T01:18:52;96748.69;;;8.10;84.79
30618;BME280;17384;51.214;9.202;2023-04-01T01:26:34;96730.97;;;7.98;85.94
30618;BME280;17384;51.214;9.202;2023-04-01T01:32:11;96725.38;;;8.04;86.04
30618;BME280;17384;51.214;9.202;2023-04-01T01:37:17;96732.47;;;7.89;86.35
30618;BME280;17384;51.214;9.202;2023-04-01T01:39:47;96729.31;;;7.97;86.33
30618;BME280;17384;51.214;9.202;2023-04-01T01:42:16;96732.34;;;8.00;86.66
30618;BME280;17384;51.214;9.202;2023-04-01T01:44:44;96726.06;;;7.95;86.69
30618;BME280;17384;51.214;9.202;2023-04-01T01:47:11;96721.63;;;8.05;85.90
30618;BME280;17384;51.214;9.202;2023-04-01T01:49:40;96725.56;;;7.98;86.36
30618;BME280;17384;51.214;9.202;2023-04-01T01:52:06;96717.03;;;8.06;85.57
30618;BME280;17384;51.214;9.202;2023-04-01T01:54:32;96726.19;;;8.05;85.24
30618;BME280;17384;51.214;9.202;2023-04-01T01:57:09;96718.16;;;8.10;84.29
30618;BME280;17384;51.214;9.202;2023-04-01T01:59:38;96719.22;;;8.09;84.50
30618;BME280;17384;51.214;9.202;2023-04-01T02:02:06;96719.22;;;8.09;84.45
30618;BME280;17384;51.214;9.202;2023-04-01T02:04:42;96699.00;;;8.11;83.91
30618;BME280;17384;51.214;9.202;2023-04-01T02:07:33;96693.63;;;8.11;83.57
30618;BME280;17384;51.214;9.202;2023-04-01T02:09:58;96718.00;;;8.17;83.78
30618;BME280;17384;51.214;9.202;2023-04-01T02:12:24;96705.72;;;8.09;83.88
30618;BME280;17384;51.214;9.202;2023-04-01T02:14:57;96716.03;;;8.12;83.15
30618;BME280;17384;51.214;9.202;2023-04-01T02:17:27;96716.78;;;8.07;83.18
30618;BME280;17384;51.214;9.202;2023-04-01T02:20:02;96709.25;;;8.09;83.58
30618;BME280;17384;51.214;9.202;2023-04-01T02:22:32;96710.06;;;8.10;83.50
30618;BME280;17384;51.214;9.202;2023-04-01T02:25:12;96723.56;;;8.10;83.31
30618;BME280;17384;51.214;9.202;2023-04-01T02:27:39;96723.88;;;8.13;82.71
30618;BME280;17384;51.214;9.202;2023-04-01T02:30:06;96730.34;;;8.12;82.97
30618;BME280;17384;51.214;9.202;2023-04-01T02:32:33;96718.50;;;8.13;82.81
30618;BME280;17384;51.214;9.202;2023-04-01T02:34:59;96734.69;;;8.13;82.85
30618;BME280;17384;51.214;9.202;2023-04-01T02:37:28;96734.44;;;8.15;82.63
30618;BME280;17384;51.214;9.202;2023-04-01T02:39:54;96736.41;;;8.20;82.29
30618;BME280;17384;51.214;9.202;2023-04-01T02:42:23;96728.47;;;8.13;82.58
30618;BME280;17384;51.214;9.202;2023-04-01T02:44:49;96724.50;;;8.21;82.02
30618;BME280;17384;51.214;9.202;2023-04-01T02:47:14;96736.66;;;8.18;81.89
30618;BME280;17384;51.214;9.202;2023-04-01T02:49:40;96719.31;;;8.14;82.41
30618;BME280;17384;51.214;9.202;2023-04-01T02:52:06;96723.31;;;8.11;81.90
30618;BME280;17384;51.214;9.202;2023-04-01T02:54:32;96724.50;;;8.21;81.71
30618;BME280;17384;51.214;9.202;2023-04-01T02:56:57;96722.75;;;8.09;82.45
30618;BME280;17384;51.214;9.202;2023-04-01T02:59:23;96736.50;;;8.08;82.57
30618;BME280;17384;51.214;9.202;2023-04-01T03:01:48;96733.38;;;8.16;82.11
30618;BME280;17384;51.214;9.202;2023-04-01T03:04:14;96736.50;;;8.08;82.52
30618;BME280;17384;51.214;9.202;2023-04-01T03:06:39;96735.94;;;8.06;82.40
30618;BME280;17384;51.214;9.202;2023-04-01T03:09:05;96739.78;;;8.10;82.77
30618;BME280;17384;51.214;9.202;2023-04-01T03:11:30;96739.28;;;8.13;82.66
30618;BME280;17384;51.214;9.202;2023-04-01T03:13:55;96743.03;;;8.12;82.69
30618;BME280;17384;51.214;9.202;2023-04-01T03:16:21;96731.09;;;8.08;83.05
30618;BME280;17384;51.214;9.202;2023-04-01T03:18:46;96737.19;;;7.98;83.09
30618;BME280;17384;51.214;9.202;2023-04-01T03:21:23;96732.09;;;8.02;83.12
30618;BME280;17384;51.214;9.202;2023-04-01T03:23:49;96734.47;;;7.98;83.14
30618;BME280;17384;51.214;9.202;2023-04-01T03:26:15;96746.53;;;7.91;83.36
30618;BME280;17384;51.214;9.202;2023-04-01T03:28:41;96737.19;;;7.98;83.12
30618;BME280;17384;51.214;9.202;2023-04-01T03:31:07;96717.91;;;7.90;83.27
30618;BME280;17384;51.214;9.202;2023-04-01T03:33:32;96717.53;;;8.03;83.15
30618;BME280;17384;51.214;9.202;2023-04-01T03:35:58;96726.38;;;7.98;83.07
30618;BME280;17384;51.214;9.202;2023-04-01T03:38:23;96729.06;;;7.98;82.82
30618;BME280;17384;51.214;9.202;2023-04-01T03:40:49;96723.94;;;7.97;82.76
30618;BME280;17384;51.214;9.202;2023-04-01T03:43:15;96735.19;;;7.89;83.05
30618;BME280;17384;51.214;9.202;2023-04-01T03:45:49;96737.88;;;7.89;83.00
30618;BME280;17384;51.214;9.202;2023-04-01T03:48:16;96731.16;;;7.91;83.43
30618;BME280;17384;51.214;9.202;2023-04-01T03:50:42;96736.16;;;7.82;83.64
30618;BME280;17384;51.214;9.202;2023-04-01T03:53:07;96739.25;;;7.91;83.72
30618;BME280;17384;51.214;9.202;2023-04-01T03:55:33;96736.31;;;7.93;83.43
30618;BME280;17384;51.214;9.202;2023-04-01T03:58:00;96734.09;;;7.90;83.66
30618;BME280;17384;51.214;9.202;2023-04-01T04:00:28;96725.38;;;7.82;83.67
30618;BME280;17384;51.214;9.202;2023-04-01T04:02:53;96723.22;;;7.85;83.52
30618;BME280;17384;51.214;9.202;2023-04-01T04:05:20;96737.16;;;7.76;83.88
30618;BME280;17384;51.214;9.202;2023-04-01T04:07:46;96736.41;;;7.81;83.95
30618;BME280;17384;51.214;9.202;2023-04-01T04:10:11;96739.34;;;7.79;83.97
30618;BME280;17384;51.214;9.202;2023-04-01T04:12:37;96737.41;;;7.75;83.99
30618;BME280;17384;51.214;9.202;2023-04-01T04:15:03;96738.72;;;7.72;84.02
30618;BME280;17384;51.214;9.202;2023-04-01T04:17:28;96730.44;;;7.79;84.01
30618;BME280;17384;51.214;9.202;2023-04-01T04:19:54;96738.38;;;7.86;83.96
30618;BME280;17384;51.214;9.202;2023-04-01T04:22:19;96751.78;;;7.80;84.62
30618;BME280;17384;51.214;9.202;2023-04-01T04:24:45;96733.63;;;7.76;84.20
30618;BME280;17384;51.214;9.202;2023-04-01T04:27:10;96750.91;;;7.75;84.48
30618;BME280;17384;51.214;9.202;2023-04-01T04:29:36;96729.78;;;7.72;83.86
30618;BME280;17384;51.214;9.202;2023-04-01T04:32:01;96732.00;;;7.75;83.99
30618;BME280;17384;51.214;9.202;2023-04-01T04:34:26;96743.44;;;7.82;84.19
30618;BME280;17384;51.214;9.202;2023-04-01T04:36:52;96749.81;;;7.76;84.46
30618;BME280;17384;51.214;9.202;2023-04-01T04:39:18;96752.06;;;7.62;84.88
30618;BME280;17384;51.214;9.202;2023-04-01T04:41:43;96738.63;;;7.67;84.77
30618;BME280;17384;51.214;9.202;2023-04-01T04:44:08;96733.81;;;7.69;84.85
30618;BME280;17384;51.214;9.202;2023-04-01T04:46:34;96751.50;;;7.60;85.09
30618;BME280;17384;51.214;9.202;2023-04-01T04:49:01;96745.59;;;7.63;84.72
30618;BME280;17384;51.214;9.202;2023-04-01T04:51:26;96745.53;;;7.58;85.19
30618;BME280;17384;51.214;9.202;2023-04-01T04:53:52;96749.84;;;7.59;84.83
30618;BME280;17384;51.214;9.202;2023-04-01T04:56:20;96754.59;;;7.52;85.15
30618;BME280;17384;51.214;9.202;2023-04-01T04:58:46;96752.22;;;7.56;85.16
30618;BME280;17384;51.214;9.202;2023-04-01T05:01:14;96748.56;;;7.62;84.76
30618;BME280;17384;51.214;9.202;2023-04-01T05:03:41;96757.88;;;7.54;85.32
30618;BME280;17384;51.214;9.202;2023-04-01T05:06:08;96758.53;;;7.61;85.07
30618;BME280;17384;51.214;9.202;2023-04-01T05:08:34;96748.88;;;7.65;84.91
30618;BME280;17384;51.214;9.202;2023-04-01T05:11:00;96744.38;;;7.54;85.01
30618;BME280;17384;51.214;9.202;2023-04-01T05:13:26;96753.13;;;7.61;84.71
30618;BME280;17384;51.214;9.202;2023-04-01T05:15:52;96750.59;;;7.55;84.71
30618;BME280;17384;51.214;9.202;2023-04-01T05:18:17;96747.25;;;7.64;84.51
30618;BME280;17384;51.214;9.202;2023-04-01T05:20:48;96739.69;;;7.66;84.45
30618;BME280;17384;51.214;9.202;2023-04-01T05:23:13;96752.94;;;7.68;84.49
30618;BME280;17384;51.214;9.202;2023-04-01T05:25:39;96754.28;;;7.65;84.56
30618;BME280;17384;51.214;9.202;2023-04-01T05:28:04;96767.69;;;7.60;84.21
30618;BME280;17384;51.214;9.202;2023-04-01T05:30:31;96765.72;;;7.56;84.55
30618;BME280;17384;51.214;9.202;2023-04-01T05:32:56;96758.34;;;7.51;84.57
30618;BME280;17384;51.214;9.202;2023-04-01T05:35:23;96754.53;;;7.64;84.43
30618;BME280;17384;51.214;9.202;2023-04-01T05:37:48;96756.97;;;7.48;85.22
30618;BME280;17384;51.214;9.202;2023-04-01T05:40:14;96762.78;;;7.57;84.72
30618;BME280;17384;51.214;9.202;2023-04-01T05:42:39;96753.63;;;7.58;84.20
30618;BME280;17384;51.214;9.202;2023-04-01T05:45:05;96768.00;;;7.64;84.64
30618;BME280;17384;51.214;9.202;2023-04-01T05:47:31;96751.25;;;7.62;84.52
30618;BME280;17384;51.214;9.202;2023-04-01T05:49:56;96759.50;;;7.55;84.28
30618;BME280;17384;51.214;9.202;2023-04-01T05:52:22;96764.50;;;7.63;83.86
30618;BME280;17384;51.214;9.202;2023-04-01T05:54:47;96768.84;;;7.64;84.14
30618;BME280;17384;51.214;9.202;2023-04-01T05:57:13;96756.69;;;7.67;83.89
30618;BME280;17384;51.214;9.202;2023-04-01T05:59:38;96771.59;;;7.69;83.20
30618;BME280;17384;51.214;9.202;2023-04-01T06:02:04;96759.16;;;7.68;83.38
30618;BME280;17384;51.214;9.202;2023-04-01T06:04:37;96776.84;;;7.59;83.69
30618;BME280;17384;51.214;9.202;2023-04-01T06:07:15;96762.38;;;7.65;83.35
30618;BME280;17384;51.214;9.202;2023-04-01T06:09:41;96775.09;;;7.70;83.67
30618;BME280;17384;51.214;9.202;2023-04-01T06:20:32;96773.78;;;7.72;83.69
30618;BME280;17384;51.214;9.202;2023-04-01T06:36:42;96772.06;;;7.83;82.76
30618;BME280;17384;51.214;9.202;2023-04-01T06:39:45;96772.06;;;7.83;82.68
30618;BME280;17384;51.214;9.202;2023-04-01T06:42:25;96789.09;;;7.84;83.22
30618;BME280;17384;51.214;9.202;2023-04-01T06:45:17;96780.41;;;7.81;82.82
30618;BME280;17384;51.214;9.202;2023-04-01T06:48:10;96772.06;;;7.83;82.90
30618;BME280;17384;51.214;9.202;2023-04-01T06:56:14;96772.41;;;7.87;82.18
30618;BME280;17384;51.214;9.202;2023-04-01T06:58:46;96773.34;;;7.97;82.10
30618;BME280;17384;51.214;9.202;2023-04-01T07:01:18;96777.94;;;7.97;82.08
30618;BME280;17384;51.214;9.202;2023-04-01T07:03:57;96788.41;;;7.93;82.13
30618;BME280;17384;51.214;9.202;2023-04-01T07:08:58;96782.41;;;8.08;82.38
30618;BME280;17384;51.214;9.202;2023-04-01T07:11:34;96779.56;;;7.98;82.43
30618;BME280;17384;51.214;9.202;2023-04-01T07:14:16;96784.63;;;8.11;82.14
30618;BME280;17384;51.214;9.202;2023-04-01T07:16:53;96782.16;;;8.09;82.35
30618;BME280;17384;51.214;9.202;2023-04-01T07:24:51;96785.13;;;8.08;82.06
30618;BME280;17384;51.214;9.202;2023-04-01T07:27:17;96789.38;;;8.04;82.55
30618;BME280;17384;51.214;9.202;2023-04-01T07:29:42;96791.59;;;8.07;82.93
30618;BME280;17384;51.214;9.202;2023-04-01T07:51:19;96811.25;;;8.41;81.98
30618;BME280;17384;51.214;9.202;2023-04-01T07:56:34;96807.34;;;8.54;81.39
30618;BME280;17384;51.214;9.202;2023-04-01T07:59:25;96814.97;;;8.57;80.81
30618;BME280;17384;51.214;9.202;2023-04-01T08:02:10;96808.41;;;8.53;81.27
30618;BME280;17384;51.214;9.202;2023-04-01T08:05:04;96819.78;;;8.55;80.57
30618;BME280;17384;51.214;9.202;2023-04-01T08:10:26;96823.31;;;8.55;80.00
30618;BME280;17384;51.214;9.202;2023-04-01T08:20:54;96822.78;;;8.75;79.41
30618;BME280;17384;51.214;9.202;2023-04-01T08:23:25;96828.69;;;8.72;80.42
30618;BME280;17384;51.214;9.202;2023-04-01T08:26:21;96836.06;;;8.60;80.59
30618;BME280;17384;51.214;9.202;2023-04-01T08:31:37;96846.72;;;8.66;79.72
30618;BME280;17384;51.214;9.202;2023-04-01T08:34:10;96839.50;;;8.72;80.52
30618;BME280;17384;51.214;9.202;2023-04-01T08:36:43;96849.09;;;8.85;80.47
30618;BME280;17384;51.214;9.202;2023-04-01T08:39:18;96843.03;;;8.77;80.69
30618;BME280;17384;51.214;9.202;2023-04-01T08:44:56;96847.63;;;8.77;79.64
30618;BME280;17384;51.214;9.202;2023-04-01T08:59:30;96828.91;;;8.92;80.02
30618;BME280;17384;51.214;9.202;2023-04-01T09:15:47;96857.19;;;9.06;80.13
30618;BME280;17384;51.214;9.202;2023-04-01T09:24:14;96851.88;;;9.16;80.32
30618;BME280;17384;51.214;9.202;2023-04-01T09:35:47;96860.56;;;9.19;79.74
30618;BME280;17384;51.214;9.202;2023-04-01T09:40:58;96865.53;;;9.27;80.20
30618;BME280;17384;51.214;9.202;2023-04-01T09:49:34;96875.13;;;9.39;79.39
30618;BME280;17384;51.214;9.202;2023-04-01T09:54:59;96876.50;;;9.42;79.53
30618;BME280;17384;51.214;9.202;2023-04-01T10:05:50;96879.06;;;9.54;79.38
30618;BME280;17384;51.214;9.202;2023-04-01T10:14:07;96882.09;;;9.62;79.10
30618;BME280;17384;51.214;9.202;2023-04-01T10:17:08;96893.25;;;9.66;79.89
30618;BME280;17384;51.214;9.202;2023-04-01T10:34:13;96875.69;;;10.32;77.23
30618;BME280;17384;51.214;9.202;2023-04-01T10:36:57;96885.53;;;10.16;77.33
30618;BME280;17384;51.214;9.202;2023-04-01T10:39:43;96889.16;;;10.22;78.83
30618;BME280;17384;51.214;9.202;2023-04-01T10:48:13;96878.94;;;10.34;78.33
30618;BME280;17384;51.214;9.202;2023-04-01T10:56:46;96879.28;;;10.48;77.33
30618;BME280;17384;51.214;9.202;2023-04-01T10:59:35;96876.28;;;10.39;77.84
30618;BME280;17384;51.214;9.202;2023-04-01T11:02:55;96872.50;;;10.08;77.98
30618;BME280;17384;51.214;9.202;2023-04-01T11:08:38;96882.69;;;9.96;80.09
30618;BME280;17384;51.214;9.202;2023-04-01T11:25:02;96907.97;;;9.75;79.98
30618;BME280;17384;51.214;9.202;2023-04-01T11:33:26;96913.84;;;9.99;81.88
30618;BME280;17384;51.214;9.202;2023-04-01T11:44:20;96913.81;;;9.94;82.03
30618;BME280;17384;51.214;9.202;2023-04-01T11:46:53;96919.84;;;10.01;81.23
30618;BME280;17384;51.214;9.202;2023-04-01T12:07:11;96941.91;;;9.82;83.71
30618;BME280;17384;51.214;9.202;2023-04-01T12:30:06;96956.75;;;10.07;81.78
30618;BME280;17384;51.214;9.202;2023-04-01T12:35:22;96967.16;;;10.20;83.30
30618;BME280;17384;51.214;9.202;2023-04-01T12:38:09;96963.38;;;10.21;81.49
30618;BME280;17384;51.214;9.202;2023-04-01T12:40:54;96961.25;;;10.23;81.29
30618;BME280;17384;51.214;9.202;2023-04-01T12:46:26;96966.28;;;10.14;82.03
30618;BME280;17384;51.214;9.202;2023-04-01T12:51:45;96978.75;;;9.83;81.66
30618;BME280;17384;51.214;9.202;2023-04-01T13:05:37;96984.09;;;9.78;82.87
30618;BME280;17384;51.214;9.202;2023-04-01T13:14:07;96993.75;;;9.47;82.28
30618;BME280;17384;51.214;9.202;2023-04-01T13:16:45;96987.34;;;9.54;83.12
30618;BME280;17384;51.214;9.202;2023-04-01T13:19:25;96999.53;;;9.78;83.16
30618;BME280;17384;51.214;9.202;2023-04-01T13:22:29;97004.44;;;9.81;83.14
30618;BME280;17384;51.214;9.202;2023-04-01T13:25:06;96996.56;;;9.79;83.13
30618;BME280;17384;51.214;9.202;2023-04-01T13:27:43;97009.47;;;9.72;83.87
30618;BME280;17384;51.214;9.202;2023-04-01T13:32:50;97002.69;;;9.70;83.46
30618;BME280;17384;51.214;9.202;2023-04-01T13:35:41;97001.44;;;9.56;84.18
30618;BME280;17384;51.214;9.202;2023-04-01T13:43:23;97007.41;;;9.36;86.85
30618;BME280;17384;51.214;9.202;2023-04-01T14:03:19;97020.91;;;9.53;86.85
30618;BME280;17384;51.214;9.202;2023-04-01T14:27:41;97041.06;;;10.15;87.96
30618;BME280;17384;51.214;9.202;2023-04-01T14:30:35;97035.19;;;10.50;87.23
30618;BME280;17384;51.214;9.202;2023-04-01T14:36:52;97038.97;;;10.81;84.63
30618;BME280;17384;51.214;9.202;2023-04-01T14:41:51;97048.66;;;10.72;83.72
30618;BME280;17384;51.214;9.202;2023-04-01T14:47:04;97045.22;;;10.82;81.88
30618;BME280;17384;51.214;9.202;2023-04-01T14:49:39;97052.38;;;10.61;81.57
30618;BME280;17384;51.214;9.202;2023-04-01T14:52:28;97060.25;;;10.63;82.35
30618;BME280;17384;51.214;9.202;2023-04-01T14:54:56;97048.44;;;10.47;81.70
30618;BME280;17384;51.214;9.202;2023-04-01T14:57:28;97055.25;;;10.49;82.53
30618;BME280;17384;51.214;9.202;2023-04-01T15:00:13;97053.81;;;10.37;82.39
30618;BME280;17384;51.214;9.202;2023-04-01T15:02:52;97060.75;;;10.28;83.37
30618;BME280;17384;51.214;9.202;2023-04-01T15:10:58;97071.59;;;10.28;82.97
30618;BME280;17384;51.214;9.202;2023-04-01T15:19:28;97091.22;;;10.18;84.32
30618;BME280;17384;51.214;9.202;2023-04-01T15:25:41;97102.63;;;10.42;84.60
30618;BME280;17384;51.214;9.202;2023-04-01T15:38:34;97106.44;;;10.73;82.85
30618;BME280;17384;51.214;9.202;2023-04-01T15:41:09;97117.63;;;10.81;81.92
30618;BME280;17384;51.214;9.202;2023-04-01T15:43:41;97119.28;;;10.82;81.91
30618;BME280;17384;51.214;9.202;2023-04-01T15:49:35;97118.84;;;10.64;83.81
30618;BME280;17384;51.214;9.202;2023-04-01T15:58:27;97139.75;;;10.41;84.87
30618;BME280;17384;51.214;9.202;2023-04-01T16:01:02;97140.69;;;10.52;84.60
30618;BME280;17384;51.214;9.202;2023-04-01T16:03:38;97157.06;;;10.35;85.10
30618;BME280;17384;51.214;9.202;2023-04-01T16:06:44;97164.34;;;10.13;86.23
30618;BME280;17384;51.214;9.202;2023-04-01T16:09:38;97160.06;;;9.95;87.03
30618;BME280;17384;51.214;9.202;2023-04-01T16:17:38;97163.91;;;9.99;87.23
30618;BME280;17384;51.214;9.202;2023-04-01T16:20:20;97171.53;;;10.02;87.36
30618;BME280;17384;51.214;9.202;2023-04-01T16:22:58;97175.03;;;10.20;86.78
30618;BME280;17384;51.214;9.202;2023-04-01T16:25:41;97166.69;;;10.04;86.67
30618;BME280;17384;51.214;9.202;2023-04-01T16:28:30;97168.38;;;9.89;86.99
30618;BME280;17384;51.214;9.202;2023-04-01T16:31:02;97176.75;;;9.87;87.37
30618;BME280;17384;51.214;9.202;2023-04-01T16:36:21;97194.13;;;10.13;86.29
30618;BME280;17384;51.214;9.202;2023-04-01T16:38:50;97194.22;;;10.18;85.72
30618;BME280;17384;51.214;9.202;2023-04-01T16:41:29;97190.69;;;10.17;85.88
30618;BME280;17384;51.214;9.202;2023-04-01T16:44:08;97203.66;;;10.15;85.95
30618;BME280;17384;51.214;9.202;2023-04-01T16:46:40;97201.09;;;10.04;86.72
30618;BME280;17384;51.214;9.202;2023-04-01T16:51:54;97202.66;;;10.00;86.71
30618;BME280;17384;51.214;9.202;2023-04-01T16:54:34;97205.72;;;9.87;87.35
30618;BME280;17384;51.214;9.202;2023-04-01T16:57:12;97217.16;;;9.72;87.91
30618;BME280;17384;51.214;9.202;2023-04-01T17:00:09;97217.06;;;9.83;87.43
30618;BME280;17384;51.214;9.202;2023-04-01T17:02:49;97220.91;;;9.88;87.46
30618;BME280;17384;51.214;9.202;2023-04-01T17:05:16;97214.88;;;9.80;87.76
30618;BME280;17384;51.214;9.202;2023-04-01T17:10:40;97234.56;;;9.59;88.96
30618;BME280;17384;51.214;9.202;2023-04-01T17:18:18;97241.03;;;9.58;89.18
30618;BME280;17384;51.214;9.202;2023-04-01T17:20:50;97242.06;;;9.52;89.49
30618;BME280;17384;51.214;9.202;2023-04-01T17:23:44;97236.63;;;9.52;89.81
30618;BME280;17384;51.214;9.202;2023-04-01T17:26:23;97251.38;;;9.61;89.62
30618;BME280;17384;51.214;9.202;2023-04-01T17:42:38;97278.03;;;9.36;91.06
30618;BME280;17384;51.214;9.202;2023-04-01T18:01:41;97310.94;;;9.28;90.33
30618;BME280;17384;51.214;9.202;2023-04-01T18:08:26;97313.78;;;9.21;90.51
30618;BME280;17384;51.214;9.202;2023-04-01T18:16:34;97324.06;;;9.07;91.29
30618;BME280;17384;51.214;9.202;2023-04-01T18:21:47;97339.31;;;8.97;91.66
30618;BME280;17384;51.214;9.202;2023-04-01T18:27:04;97341.56;;;8.88;91.87
30618;BME280;17384;51.214;9.202;2023-04-01T18:34:40;97368.78;;;8.70;93.60
30618;BME280;17384;51.214;9.202;2023-04-01T18:37:34;97366.19;;;8.75;93.33
30618;BME280;17384;51.214;9.202;2023-04-01T18:43:01;97381.38;;;8.53;93.77
30618;BME280;17384;51.214;9.202;2023-04-01T18:50:52;97388.41;;;8.65;92.61
30618;BME280;17384;51.214;9.202;2023-04-01T18:53:42;97381.47;;;8.69;92.80
30618;BME280;17384;51.214;9.202;2023-04-01T18:56:43;97394.88;;;8.64;92.83
30618;BME280;17384;51.214;9.202;2023-04-01T18:59:39;97400.41;;;8.69;92.95
30618;BME280;17384;51.214;9.202;2023-04-01T19:02:40;97406.06;;;8.68;92.85
30618;BME280;17384;51.214;9.202;2023-04-01T19:05:16;97417.56;;;8.63;92.75
30618;BME280;17384;51.214;9.202;2023-04-01T19:07:47;97419.69;;;8.61;92.64
30618;BME280;17384;51.214;9.202;2023-04-01T19:21:07;97431.91;;;8.64;93.11
30618;BME280;17384;51.214;9.202;2023-04-01T19:29:18;97453.91;;;8.67;92.65
30618;BME280;17384;51.214;9.202;2023-04-01T19:32:10;97455.31;;;8.70;92.46
30618;BME280;17384;51.214;9.202;2023-04-01T19:42:36;97463.19;;;8.60;92.09
30618;BME280;17384;51.214;9.202;2023-04-01T19:50:57;97477.28;;;8.62;91.93
30618;BME280;17384;51.214;9.202;2023-04-01T19:53:31;97479.84;;;8.57;92.61
30618;BME280;17384;51.214;9.202;2023-04-01T19:56:17;97480.78;;;8.51;92.86
30618;BME280;17384;51.214;9.202;2023-04-01T19:58:50;97484.78;;;8.48;92.94
30618;BME280;17384;51.214;9.202;2023-04-01T20:04:13;97494.91;;;8.41;93.24
30618;BME280;17384;51.214;9.202;2023-04-01T20:14:54;97523.59;;;8.42;93.77
30618;BME280;17384;51.214;9.202;2023-04-01T20:17:23;97516.53;;;8.41;93.57
30618;BME280;17384;51.214;9.202;2023-04-01T20:25:27;97537.31;;;8.40;93.92
30618;BME280;17384;51.214;9.202;2023-04-01T20:33:32;97553.06;;;8.43;93.76
30618;BME280;17384;51.214;9.202;2023-04-01T20:36:05;97554.38;;;8.41;93.75
30618;BME280;17384;51.214;9.202;2023-04-01T20:52:32;97577.94;;;8.34;93.91
30618;BME280;17384;51.214;9.202;2023-04-01T20:55:25;97585.38;;;8.38;94.01
30618;BME280;17384;51.214;9.202;2023-04-01T21:03:39;97578.00;;;8.27;93.86
30618;BME280;17384;51.214;9.202;2023-04-01T21:11:48;97595.94;;;8.10;94.13
30618;BME280;17384;51.214;9.202;2023-04-01T21:27:34;97619.66;;;8.08;94.82
30618;BME280;17384;51.214;9.202;2023-04-01T21:30:53;97625.69;;;8.22;94.79
30618;BME280;17384;51.214;9.202;2023-04-01T21:46:56;97647.72;;;8.07;95.08
30618;BME280;17384;51.214;9.202;2023-04-01T22:06:33;97670.53;;;7.74;94.59
30618;BME280;17384;51.214;9.202;2023-04-01T22:09:11;97675.78;;;7.69;94.85
30618;BME280;17384;51.214;9.202;2023-04-01T22:12:17;97676.59;;;7.70;94.51
30618;BME280;17384;51.214;9.202;2023-04-01T22:20:46;97688.31;;;7.82;93.91
30618;BME280;17384;51.214;9.202;2023-04-01T22:28:21;97704.59;;;7.75;93.57
30618;BME280;17384;51.214;9.202;2023-04-01T22:30:52;97706.84;;;7.78;93.57
30618;BME280;17384;51.214;9.202;2023-04-01T22:33:41;97706.78;;;7.85;93.24
30618;BME280;17384;51.214;9.202;2023-04-01T22:39:01;97706.94;;;7.90;92.82
30618;BME280;17384;51.214;9.202;2023-04-01T22:43:56;97729.19;;;7.86;93.57
30618;BME280;17384;51.214;9.202;2023-04-01T22:49:41;97738.97;;;7.87;93.52
30618;BME280;17384;51.214;9.202;2023-04-01T22:54:47;97736.91;;;7.64;93.54
30618;BME280;17384;51.214;9.202;2023-04-01T23:05:51;97759.41;;;7.33;91.82
30618;BME280;17384;51.214;9.202;2023-04-01T23:11:07;97772.91;;;7.33;91.07
30618;BME280;17384;51.214;9.202;2023-04-01T23:13:38;97775.06;;;7.18;91.15
30618;BME280;17384;51.214;9.202;2023-04-01T23:16:06;97775.25;;;7.23;90.81
30618;BME280;17384;51.214;9.202;2023-04-01T23:26:52;97804.50;;;6.94;90.75
30618;BME280;17384;51.214;9.202;2023-04-01T23:29:22;97804.91;;;6.91;91.41
30618;BME280;17384;51.214;9.202;2023-04-01T23:32:03;97807.66;;;6.85;90.69
30618;BME280;17384;51.214;9.202;2023-04-01T23:34:34;97824.84;;;6.90;90.58
30618;BME280;17384;51.214;9.202;2023-04-01T23:37:07;97813.22;;;6.90;90.69
30618;BME280;17384;51.214;9.202;2023-04-01T23:39:38;97828.25;;;6.72;90.24
30618;BME280;17384;51.214;9.202;2023-04-01T23:42:26;97822.28;;;6.64;90.11
30618;BME280;17384;51.214;9.202;2023-04-01T23:44:58;97832.88;;;6.59;90.45
30618;BME280;17384;51.214;9.202;2023-04-01T23:47:29;97849.69;;;6.54;90.41
30618;BME280;17384;51.214;9.202;2023-04-01T23:50:12;97854.69;;;6.51;90.25
30618;BME280;17384;51.214;9.202;2023-04-01T23:52:42;97855.72;;;6.50;90.32
30618;BME280;17384;51.214;9.202;2023-04-01T23:58:14;97863.84;;;6.36;90.09
